createdAt,value
2019-01-20T00:02:46.545Z,101471.83
2019-01-20T00:07:49.048Z,101468.03
2019-01-20T00:12:51.589Z,101468.92
2019-01-20T00:17:54.745Z,101462.56
2019-01-20T00:22:57.144Z,101458.30
2019-01-20T00:28:00.255Z,101455.82
2019-01-20T00:33:02.640Z,101453.77
2019-01-20T00:38:04.847Z,101450.36
2019-01-20T00:43:07.541Z,101446.98
2019-01-20T00:48:09.835Z,101452.12
2019-01-20T00:53:12.504Z,101457.27
2019-01-20T00:58:15.369Z,101451.38
2019-01-20T01:03:18.593Z,101457.73
2019-01-20T01:08:21.341Z,101453.50
2019-01-20T01:13:25.256Z,101453.53
2019-01-20T01:18:27.594Z,101439.52
2019-01-20T01:23:30.381Z,101439.97
2019-01-20T01:28:33.006Z,101438.30
2019-01-20T01:33:35.554Z,101451.95
2019-01-20T01:38:37.851Z,101445.98
2019-01-20T01:43:40.982Z,101443.46
2019-01-20T01:48:43.584Z,101440.50
2019-01-20T01:53:46.072Z,101431.59
2019-01-20T01:58:48.666Z,101430.31
2019-01-20T02:03:51.521Z,101430.77
2019-01-20T02:08:54.067Z,101423.95
2019-01-20T02:13:56.628Z,101427.36
2019-01-20T02:18:59.187Z,101428.67
2019-01-20T02:24:01.948Z,101430.80
2019-01-20T02:29:04.604Z,101433.37
2019-01-20T02:34:07.287Z,101430.84
2019-01-20T02:39:09.804Z,101425.73
2019-01-20T02:44:12.192Z,101430.87
2019-01-20T02:49:15.071Z,101432.59
2019-01-20T02:54:18.032Z,101434.28
2019-01-20T02:59:20.593Z,101427.08
2019-01-20T03:04:22.912Z,101427.50
2019-01-20T03:09:25.666Z,101425.39
2019-01-20T03:14:27.926Z,101425.39
2019-01-20T03:19:30.834Z,101414.38
2019-01-20T03:24:33.056Z,101423.31
2019-01-20T03:29:35.325Z,101424.17
2019-01-20T03:34:37.627Z,101420.81
2019-01-20T03:39:39.875Z,101417.43
2019-01-20T03:44:42.225Z,101415.30
2019-01-20T03:49:44.604Z,101428.48
2019-01-20T03:54:46.943Z,101423.83
2019-01-20T03:59:49.390Z,101422.53
2019-01-20T04:04:52.066Z,101426.80
2019-01-20T04:09:54.978Z,101432.75
2019-01-20T04:14:57.479Z,101432.34
2019-01-20T04:20:00.370Z,101426.40
2019-01-20T04:25:04.925Z,101420.05
2019-01-20T04:30:10.673Z,101428.98
2019-01-20T04:35:13.448Z,101433.23
2019-01-20T04:40:18.701Z,101428.11
2019-01-20T04:45:21.300Z,101429.83
2019-01-20T04:50:24.473Z,101436.20
2019-01-20T04:55:27.141Z,101429.83
2019-01-20T05:00:30.209Z,101434.93
2019-01-20T05:05:33.118Z,101434.09
2019-01-20T05:10:36.026Z,101435.81
2019-01-20T05:15:38.267Z,101429.00
2019-01-20T05:20:41.312Z,101436.21
2019-01-20T05:25:44.304Z,101431.13
2019-01-20T05:30:46.524Z,101431.14
2019-01-20T05:35:48.859Z,101429.02
2019-01-20T05:40:51.625Z,101428.59
2019-01-20T05:45:54.389Z,101429.87
2019-01-20T05:50:56.727Z,101432.84
2019-01-20T05:55:59.878Z,101434.56
2019-01-20T06:01:02.658Z,101439.67
2019-01-20T06:06:05.000Z,101442.62
2019-01-20T06:11:08.029Z,101444.74
2019-01-20T06:16:10.548Z,101446.02
2019-01-20T06:21:12.861Z,101444.77
2019-01-20T06:26:15.115Z,101444.33
2019-01-20T06:31:17.810Z,101439.64
2019-01-20T06:36:20.678Z,101449.84
2019-01-20T06:41:23.026Z,101451.12
2019-01-20T06:46:25.296Z,101457.92
2019-01-20T06:51:27.500Z,101470.22
2019-01-20T06:56:30.318Z,101468.11
2019-01-20T07:01:32.585Z,101475.75
2019-01-20T07:06:35.007Z,101469.79
2019-01-20T07:11:38.987Z,101471.49
2019-01-20T07:16:41.560Z,101475.30
2019-01-20T07:21:43.908Z,101484.66
2019-01-20T07:26:46.388Z,101491.44
2019-01-20T07:31:48.711Z,101493.55
2019-01-20T07:36:51.617Z,101494.41
2019-01-20T07:41:54.721Z,101499.09
2019-01-20T07:46:57.380Z,101502.03
2019-01-20T07:51:59.600Z,101504.58
2019-01-20T07:57:01.833Z,101512.67
2019-01-20T08:02:06.085Z,101519.45
2019-01-20T08:07:08.281Z,101519.50
2019-01-20T08:12:10.942Z,101523.76
2019-01-20T08:17:13.537Z,101527.59
2019-01-20T08:22:16.272Z,101534.38
2019-01-20T08:27:19.384Z,101533.97
2019-01-20T08:32:21.691Z,101544.17
2019-01-20T08:37:28.756Z,101547.98
2019-01-20T08:42:28.689Z,101553.52
2019-01-20T08:47:39.314Z,101552.63
2019-01-20T08:52:41.776Z,101563.69
2019-01-20T08:57:47.224Z,101572.16
2019-01-20T09:02:49.576Z,101572.52
2019-01-20T09:07:52.647Z,101573.67
2019-01-20T09:12:57.370Z,101570.05
2019-01-20T09:18:00.011Z,101573.64
2019-01-20T09:23:02.650Z,101587.08
2019-01-20T09:28:05.310Z,101581.49
2019-01-20T09:33:07.862Z,101586.36
2019-01-20T09:38:10.180Z,101585.59
2019-01-20T09:43:13.492Z,101585.31
2019-01-20T09:48:15.935Z,101586.45
2019-01-20T09:53:18.924Z,101595.64
2019-01-20T09:58:21.656Z,101585.77
2019-01-20T10:03:24.683Z,101591.13
2019-01-20T10:08:27.791Z,101589.86
2019-01-20T10:13:30.534Z,101591.22
2019-01-20T10:18:33.370Z,101584.20
2019-01-20T10:23:36.233Z,101584.21
2019-01-20T10:28:39.166Z,101587.46
2019-01-20T10:33:41.746Z,101578.97
2019-01-20T10:38:44.270Z,101581.17
2019-01-20T10:43:47.499Z,101583.25
2019-01-20T10:48:50.438Z,101582.74
2019-01-20T10:53:53.113Z,101583.46
2019-01-20T10:58:55.592Z,101581.14
2019-01-20T11:03:58.027Z,101571.47
2019-01-20T11:09:00.373Z,101583.03
2019-01-20T11:14:09.443Z,101577.00
2019-01-20T11:19:07.479Z,101578.70
2019-01-20T11:24:11.370Z,101583.72
2019-01-20T11:29:13.606Z,101588.42
2019-01-20T11:34:16.080Z,101581.61
2019-01-20T11:39:18.501Z,101586.72
2019-01-20T11:44:21.160Z,101590.48
2019-01-20T11:49:25.186Z,101591.89
2019-01-20T11:54:27.613Z,101597.40
2019-01-20T11:59:30.764Z,101594.94
2019-01-20T12:04:33.434Z,101591.62
2019-01-20T12:09:36.191Z,101589.89
2019-01-20T12:14:38.447Z,101584.47
2019-01-20T12:19:41.962Z,101581.48
2019-01-20T12:24:44.260Z,101583.64
2019-01-20T12:29:51.841Z,101584.03
2019-01-20T12:34:51.145Z,101582.05
2019-01-20T12:39:54.226Z,101576.37
2019-01-20T12:44:57.028Z,101573.40
2019-01-20T12:49:59.379Z,101572.39
2019-01-20T12:55:02.237Z,101575.68
2019-01-20T13:00:06.239Z,101575.82
2019-01-20T13:05:09.490Z,101572.48
2019-01-20T13:10:14.628Z,101573.84
2019-01-20T13:15:18.940Z,101573.28
2019-01-20T13:20:25.822Z,101577.25
2019-01-20T13:25:29.892Z,101579.61
2019-01-20T13:30:32.670Z,101578.80
2019-01-20T13:35:35.255Z,101578.19
2019-01-20T13:40:51.371Z,101589.17
2019-01-20T13:45:53.676Z,101584.28
2019-01-20T13:50:55.914Z,101589.74
2019-01-20T13:56:01.239Z,101583.50
2019-01-20T14:01:04.204Z,101592.83
2019-01-20T14:06:06.610Z,101590.97
2019-01-20T14:11:09.393Z,101595.72
2019-01-20T14:16:11.716Z,101606.21
2019-01-20T14:21:14.628Z,101602.00
2019-01-20T14:26:17.190Z,101611.12
2019-01-20T14:31:20.077Z,101613.27
2019-01-20T14:36:22.634Z,101618.09
2019-01-20T14:41:25.257Z,101628.62
2019-01-20T14:46:27.604Z,101640.13
2019-01-20T14:51:30.312Z,101645.16
2019-01-20T14:56:32.909Z,101647.37
2019-01-20T15:01:35.470Z,101644.77
2019-01-20T15:06:38.071Z,101645.58
2019-01-20T15:11:40.633Z,101655.28
2019-01-20T15:16:43.338Z,101644.72
2019-01-20T15:21:45.889Z,101651.77
2019-01-20T15:26:48.802Z,101654.42
2019-01-20T15:31:51.301Z,101655.03
2019-01-20T15:36:55.363Z,101665.50
2019-01-20T15:41:58.046Z,101668.22
2019-01-20T15:47:00.567Z,101675.67
2019-01-20T15:52:02.954Z,101672.89
2019-01-20T15:57:05.296Z,101674.25
2019-01-20T16:02:08.813Z,101676.46
2019-01-20T16:07:11.367Z,101682.98
2019-01-20T16:12:13.670Z,101689.53
2019-01-20T16:17:16.059Z,101688.75
2019-01-20T16:22:19.687Z,101693.97
2019-01-20T16:27:22.412Z,101692.44
2019-01-20T16:32:24.656Z,101695.09
2019-01-20T16:37:27.008Z,101693.55
2019-01-20T16:42:29.528Z,101700.84
2019-01-20T16:47:32.270Z,101703.03
2019-01-20T16:52:34.828Z,101706.45
2019-01-20T16:57:37.481Z,101710.75
2019-01-20T17:02:43.098Z,101716.41
2019-01-20T17:07:46.880Z,101723.38
2019-01-20T17:12:49.649Z,101732.09
2019-01-20T17:17:52.450Z,101733.86
2019-01-20T17:22:56.958Z,101733.06
2019-01-20T17:28:24.416Z,101745.09
2019-01-20T17:33:27.431Z,101738.77
2019-01-20T17:38:30.271Z,101747.41
2019-01-20T17:43:32.713Z,101750.02
2019-01-20T17:48:35.351Z,101756.09
2019-01-20T17:53:37.965Z,101751.05
2019-01-20T17:58:40.167Z,101753.23
2019-01-20T18:03:43.150Z,101766.89
2019-01-20T18:08:45.606Z,101762.66
2019-01-20T18:13:47.884Z,101769.11
2019-01-20T18:18:50.164Z,101773.81
2019-01-20T18:23:52.894Z,101784.20
2019-01-20T18:28:55.243Z,101786.01
2019-01-20T18:33:58.663Z,101794.64
2019-01-20T18:39:01.062Z,101804.48
2019-01-20T18:44:05.033Z,101802.73
2019-01-20T18:49:07.594Z,101799.73
2019-01-20T18:54:09.955Z,101807.84
2019-01-20T18:59:12.195Z,101821.13
2019-01-20T19:04:14.953Z,101817.76
2019-01-20T19:09:17.690Z,101821.17
2019-01-20T19:14:19.932Z,101834.40
2019-01-20T19:19:22.217Z,101837.39
2019-01-20T19:24:25.324Z,101854.88
2019-01-20T19:29:27.854Z,101854.50
2019-01-20T19:34:30.139Z,101851.95
2019-01-20T19:39:33.025Z,101864.73
2019-01-20T19:44:38.667Z,101867.70
2019-01-20T19:49:41.475Z,101871.56
2019-01-20T19:54:44.141Z,101873.25
2019-01-20T19:59:47.032Z,101883.92
2019-01-20T20:04:49.634Z,101884.36
2019-01-20T20:09:51.914Z,101886.52
2019-01-20T20:14:54.311Z,101887.81
2019-01-20T20:19:59.152Z,101898.91
2019-01-20T20:25:01.791Z,101899.80
2019-01-20T20:30:09.915Z,101896.83
2019-01-20T20:35:12.866Z,101902.80
2019-01-20T20:40:17.265Z,101911.33
2019-01-20T20:45:21.456Z,101917.70
2019-01-20T20:50:23.759Z,101920.67
2019-01-20T20:55:26.183Z,101925.36
2019-01-20T21:00:41.832Z,101931.34
2019-01-20T21:05:44.594Z,101930.91
2019-01-20T21:10:47.107Z,101931.78
2019-01-20T21:15:50.929Z,101934.76
2019-01-20T21:20:54.468Z,101927.51
2019-01-20T21:25:57.545Z,101932.64
2019-01-20T21:30:59.899Z,101936.93
2019-01-20T21:36:02.575Z,101943.77
2019-01-20T21:41:05.353Z,101949.31
2019-01-20T21:46:09.205Z,101954.00
2019-01-20T21:51:11.957Z,101955.70
2019-01-20T21:56:14.836Z,101960.83
2019-01-20T22:01:17.606Z,101965.52
2019-01-20T22:06:20.274Z,101968.08
2019-01-20T22:11:22.739Z,101970.19
2019-01-20T22:16:25.228Z,101968.48
2019-01-20T22:21:27.926Z,101974.02
2019-01-20T22:26:30.280Z,101971.89
2019-01-20T22:31:33.368Z,101975.31
2019-01-20T22:36:36.100Z,101973.59
2019-01-20T22:41:39.439Z,101978.31
2019-01-20T22:46:42.237Z,101977.02
2019-01-20T22:51:45.434Z,101973.17
2019-01-20T22:56:48.464Z,101972.73
2019-01-20T23:01:51.543Z,101973.19
2019-01-20T23:06:55.079Z,101976.58
2019-01-20T23:11:58.753Z,101988.11
2019-01-20T23:17:07.712Z,101986.81
2019-01-20T23:22:05.379Z,101988.92
2019-01-20T23:27:07.974Z,101980.39
2019-01-20T23:32:10.210Z,101990.20
2019-01-20T23:37:12.978Z,101985.03
2019-01-20T23:42:16.102Z,101982.45
2019-01-20T23:47:19.310Z,101981.61
2019-01-20T23:52:21.902Z,101980.77
2019-01-20T23:57:24.692Z,101982.92
